sensor_id;sensor_type;location;lat;lon;timestamp;pressure;altitude;pressure_sealevel;temperature;humidity
75972;BME280;64651;47.540;19.088;2024-01-30T00:00:59;102865.38;;;-1.05;88.80
75972;BME280;64651;47.540;19.088;2024-01-30T00:06:03;102862.78;;;-0.97;88.78
75972;BME280;64651;47.540;19.088;2024-01-30T00:11:07;102868.62;;;-1.01;89.06
75972;BME280;64651;47.540;19.088;2024-01-30T00:16:20;102867.75;;;-1.02;89.13
75972;BME280;64651;47.540;19.088;2024-01-30T00:21:22;102859.81;;;-1.23;89.58
75972;BME280;64651;47.540;19.088;2024-01-30T00:26:25;102851.00;;;-1.25;89.80
75972;BME280;64651;47.540;19.088;2024-01-30T00:31:27;102860.53;;;-1.30;89.94
75972;BME280;64651;47.540;19.088;2024-01-30T00:36:30;102865.66;;;-1.17;89.98
75972;BME280;64651;47.540;19.088;2024-01-30T00:41:32;102875.31;;;-1.05;89.68
75972;BME280;64651;47.540;19.088;2024-01-30T00:46:35;102874.88;;;-1.10;89.77
75972;BME280;64651;47.540;19.088;2024-01-30T00:51:37;102877.87;;;-1.13;89.61
75972;BME280;64651;47.540;19.088;2024-01-30T00:56:39;102851.13;;;-1.45;89.90
75972;BME280;64651;47.540;19.088;2024-01-30T01:01:41;102868.91;;;-1.24;89.81
75972;BME280;64651;47.540;19.088;2024-01-30T01:06:44;102875.44;;;-1.36;89.99
75972;BME280;64651;47.540;19.088;2024-01-30T01:11:46;102868.75;;;-1.32;89.86
75972;BME280;64651;47.540;19.088;2024-01-30T01:16:49;102869.31;;;-1.47;90.37
75972;BME280;64651;47.540;19.088;2024-01-30T01:21:52;102863.75;;;-1.46;90.43
75972;BME280;64651;47.540;19.088;2024-01-30T01:26:55;102866.47;;;-1.46;90.11
75972;BME280;64651;47.540;19.088;2024-01-30T01:31:58;102853.84;;;-1.36;89.70
75972;BME280;64651;47.540;19.088;2024-01-30T01:37:00;102858.78;;;-1.50;89.63
75972;BME280;64651;47.540;19.088;2024-01-30T01:42:03;102845.00;;;-1.57;89.59
75972;BME280;64651;47.540;19.088;2024-01-30T01:47:06;102860.03;;;-1.74;89.82
75972;BME280;64651;47.540;19.088;2024-01-30T01:52:08;102849.66;;;-1.78;89.95
75972;BME280;64651;47.540;19.088;2024-01-30T01:57:12;102852.50;;;-1.70;89.83
75972;BME280;64651;47.540;19.088;2024-01-30T02:02:14;102844.97;;;-1.76;90.00
75972;BME280;64651;47.540;19.088;2024-01-30T02:07:20;102855.06;;;-1.69;90.16
75972;BME280;64651;47.540;19.088;2024-01-30T02:12:22;102850.81;;;-1.52;90.29
75972;BME280;64651;47.540;19.088;2024-01-30T02:17:24;102834.91;;;-1.65;90.12
75972;BME280;64651;47.540;19.088;2024-01-30T02:22:27;102839.44;;;-1.75;90.37
75972;BME280;64651;47.540;19.088;2024-01-30T02:27:30;102827.41;;;-1.61;90.29
75972;BME280;64651;47.540;19.088;2024-01-30T02:32:32;102838.62;;;-1.56;89.83
75972;BME280;64651;47.540;19.088;2024-01-30T02:37:34;102843.00;;;-1.74;89.81
75972;BME280;64651;47.540;19.088;2024-01-30T02:42:36;102844.41;;;-1.70;89.79
75972;BME280;64651;47.540;19.088;2024-01-30T02:47:40;102849.06;;;-1.91;90.07
75972;BME280;64651;47.540;19.088;2024-01-30T02:52:42;102851.03;;;-1.93;90.08
75972;BME280;64651;47.540;19.088;2024-01-30T02:57:47;102843.53;;;-1.90;90.43
75972;BME280;64651;47.540;19.088;2024-01-30T03:02:49;102837.97;;;-1.88;90.41
75972;BME280;64651;47.540;19.088;2024-01-30T03:07:51;102824.34;;;-1.96;90.44
75972;BME280;64651;47.540;19.088;2024-01-30T03:12:54;102839.69;;;-1.97;90.34
75972;BME280;64651;47.540;19.088;2024-01-30T03:17:56;102845.94;;;-1.87;90.22
75972;BME280;64651;47.540;19.088;2024-01-30T03:23:00;102846.31;;;-2.01;90.37
75972;BME280;64651;47.540;19.088;2024-01-30T03:28:02;102837.97;;;-1.88;90.14
75972;BME280;64651;47.540;19.088;2024-01-30T03:33:05;102851.31;;;-1.96;90.42
75972;BME280;64651;47.540;19.088;2024-01-30T03:38:07;102853.91;;;-1.85;90.41
75972;BME280;64651;47.540;19.088;2024-01-30T03:43:09;102831.00;;;-2.00;90.35
75972;BME280;64651;47.540;19.088;2024-01-30T03:48:12;102832.72;;;-1.99;90.60
75972;BME280;64651;47.540;19.088;2024-01-30T03:53:14;102827.59;;;-2.02;90.66
75972;BME280;64651;47.540;19.088;2024-01-30T03:58:16;102829.09;;;-2.19;91.04
75972;BME280;64651;47.540;19.088;2024-01-30T04:03:18;102835.34;;;-2.19;91.37
75972;BME280;64651;47.540;19.088;2024-01-30T04:08:21;102822.16;;;-2.22;91.28
75972;BME280;64651;47.540;19.088;2024-01-30T04:13:23;102821.97;;;-2.30;91.14
75972;BME280;64651;47.540;19.088;2024-01-30T04:18:25;102829.03;;;-2.38;91.31
75972;BME280;64651;47.540;19.088;2024-01-30T04:23:28;102818.28;;;-2.29;91.21
75972;BME280;64651;47.540;19.088;2024-01-30T04:28:30;102813.63;;;-2.27;91.18
75972;BME280;64651;47.540;19.088;2024-01-30T04:33:32;102831.03;;;-2.31;91.12
75972;BME280;64651;47.540;19.088;2024-01-30T04:38:35;102816.31;;;-2.27;90.97
75972;BME280;64651;47.540;19.088;2024-01-30T04:43:37;102811.38;;;-2.22;90.99
75972;BME280;64651;47.540;19.088;2024-01-30T04:48:40;102829.25;;;-2.21;91.34
75972;BME280;64651;47.540;19.088;2024-01-30T04:53:42;102823.41;;;-2.26;91.50
75972;BME280;64651;47.540;19.088;2024-01-30T04:58:44;102829.06;;;-2.29;91.66
75972;BME280;64651;47.540;19.088;2024-01-30T05:03:47;102836.44;;;-2.31;91.82
75972;BME280;64651;47.540;19.088;2024-01-30T05:08:49;102837.16;;;-2.29;91.89
75972;BME280;64651;47.540;19.088;2024-01-30T05:13:51;102841.28;;;-2.25;91.99
75972;BME280;64651;47.540;19.088;2024-01-30T05:18:54;102840.03;;;-2.21;92.08
75972;BME280;64651;47.540;19.088;2024-01-30T05:23:56;102855.47;;;-2.23;92.02
75972;BME280;64651;47.540;19.088;2024-01-30T05:28:58;102867.53;;;-2.27;92.06
75972;BME280;64651;47.540;19.088;2024-01-30T05:34:01;102862.41;;;-2.30;92.26
75972;BME280;64651;47.540;19.088;2024-01-30T05:39:04;102863.69;;;-2.24;92.12
75972;BME280;64651;47.540;19.088;2024-01-30T05:44:10;102876.50;;;-2.17;92.18
75972;BME280;64651;47.540;19.088;2024-01-30T05:49:12;102878.31;;;-2.27;92.54
75972;BME280;64651;47.540;19.088;2024-01-30T05:54:14;102867.25;;;-2.24;92.48
75972;BME280;64651;47.540;19.088;2024-01-30T05:59:19;102867.56;;;-2.17;92.41
75972;BME280;64651;47.540;19.088;2024-01-30T06:04:21;102873.38;;;-2.22;92.33
75972;BME280;64651;47.540;19.088;2024-01-30T06:09:23;102882.00;;;-2.28;91.82
75972;BME280;64651;47.540;19.088;2024-01-30T06:14:25;102880.63;;;-2.43;92.12
75972;BME280;64651;47.540;19.088;2024-01-30T06:19:28;102875.34;;;-2.24;91.84
75972;BME280;64651;47.540;19.088;2024-01-30T06:24:30;102887.97;;;-2.24;91.50
75972;BME280;64651;47.540;19.088;2024-01-30T06:29:33;102890.66;;;-2.24;91.33
75972;BME280;64651;47.540;19.088;2024-01-30T06:34:35;102877.34;;;-2.26;91.13
75972;BME280;64651;47.540;19.088;2024-01-30T06:39:37;102883.06;;;-2.10;90.64
75972;BME280;64651;47.540;19.088;2024-01-30T06:44:39;102891.59;;;-2.05;90.29
75972;BME280;64651;47.540;19.088;2024-01-30T06:49:42;102895.88;;;-2.02;89.88
75972;BME280;64651;47.540;19.088;2024-01-30T06:54:46;102883.72;;;-1.87;89.99
75972;BME280;64651;47.540;19.088;2024-01-30T06:59:48;102892.53;;;-1.85;90.17
75972;BME280;64651;47.540;19.088;2024-01-30T07:04:50;102883.94;;;-1.50;90.18
75972;BME280;64651;47.540;19.088;2024-01-30T07:09:53;102892.03;;;-1.50;89.89
75972;BME280;64651;47.540;19.088;2024-01-30T07:14:59;102890.66;;;-1.35;89.60
75972;BME280;64651;47.540;19.088;2024-01-30T07:20:01;102892.94;;;-1.20;89.43
75972;BME280;64651;47.540;19.088;2024-01-30T07:25:08;102888.94;;;-1.07;89.24
75972;BME280;64651;47.540;19.088;2024-01-30T07:30:11;102890.53;;;-1.04;88.96
75972;BME280;64651;47.540;19.088;2024-01-30T07:35:23;102898.91;;;-0.88;88.76
75972;BME280;64651;47.540;19.088;2024-01-30T07:40:25;102889.09;;;-0.99;88.86
75972;BME280;64651;47.540;19.088;2024-01-30T07:45:27;102890.94;;;-0.90;88.96
75972;BME280;64651;47.540;19.088;2024-01-30T07:50:34;102886.63;;;-0.73;88.73
75972;BME280;64651;47.540;19.088;2024-01-30T08:01:15;102882.00;;;-0.34;87.75
75972;BME280;64651;47.540;19.088;2024-01-30T08:06:18;102888.94;;;-0.22;87.22
75972;BME280;64651;47.540;19.088;2024-01-30T08:11:21;102890.56;;;-0.02;86.45
75972;BME280;64651;47.540;19.088;2024-01-30T08:16:27;102886.97;;;0.08;85.84
75972;BME280;64651;47.540;19.088;2024-01-30T08:21:30;102890.19;;;0.21;85.34
75972;BME280;64651;47.540;19.088;2024-01-30T08:26:32;102888.94;;;0.43;84.66
75972;BME280;64651;47.540;19.088;2024-01-30T08:31:34;102894.91;;;0.64;83.88
75972;BME280;64651;47.540;19.088;2024-01-30T08:36:37;102894.53;;;0.76;83.44
75972;BME280;64651;47.540;19.088;2024-01-30T08:41:39;102903.50;;;0.95;82.86
75972;BME280;64651;47.540;19.088;2024-01-30T08:46:41;102901.88;;;1.19;81.90
75972;BME280;64651;47.540;19.088;2024-01-30T08:51:44;102906.44;;;1.62;80.91
75972;BME280;64651;47.540;19.088;2024-01-30T08:56:46;102903.19;;;2.19;78.98
75972;BME280;64651;47.540;19.088;2024-01-30T09:01:49;102891.53;;;3.25;76.00
75972;BME280;64651;47.540;19.088;2024-01-30T09:07:04;102880.97;;;4.48;72.29
75972;BME280;64651;47.540;19.088;2024-01-30T09:12:11;102884.13;;;5.37;68.09
75972;BME280;64651;47.540;19.088;2024-01-30T09:17:14;102870.72;;;5.94;65.00
75972;BME280;64651;47.540;19.088;2024-01-30T09:22:16;102876.06;;;5.72;65.02
75972;BME280;64651;47.540;19.088;2024-01-30T09:27:18;102872.81;;;6.06;63.49
75972;BME280;64651;47.540;19.088;2024-01-30T09:32:20;102861.97;;;6.28;62.48
75972;BME280;64651;47.540;19.088;2024-01-30T09:37:23;102871.81;;;6.79;61.43
75972;BME280;64651;47.540;19.088;2024-01-30T09:42:34;102869.63;;;6.03;62.59
75972;BME280;64651;47.540;19.088;2024-01-30T09:47:42;102870.66;;;7.31;58.16
75972;BME280;64651;47.540;19.088;2024-01-30T09:52:46;102875.22;;;5.72;63.42
75972;BME280;64651;47.540;19.088;2024-01-30T09:57:49;102866.50;;;6.92;61.71
75972;BME280;64651;47.540;19.088;2024-01-30T10:02:52;102851.62;;;13.85;43.06
75972;BME280;64651;47.540;19.088;2024-01-30T10:07:55;102867.13;;;10.57;47.51
75972;BME280;64651;47.540;19.088;2024-01-30T10:12:58;102873.47;;;8.95;51.06
75972;BME280;64651;47.540;19.088;2024-01-30T10:18:04;102867.81;;;8.08;54.30
75972;BME280;64651;47.540;19.088;2024-01-30T10:23:08;102865.88;;;9.23;53.16
75972;BME280;64651;47.540;19.088;2024-01-30T10:28:11;102840.50;;;19.32;32.81
75972;BME280;64651;47.540;19.088;2024-01-30T10:33:13;102828.50;;;17.82;34.62
75972;BME280;64651;47.540;19.088;2024-01-30T10:38:19;102830.34;;;13.27;39.86
75972;BME280;64651;47.540;19.088;2024-01-30T10:43:22;102817.03;;;19.69;32.25
75972;BME280;64651;47.540;19.088;2024-01-30T10:48:29;102807.19;;;18.03;31.98
75972;BME280;64651;47.540;19.088;2024-01-30T10:53:33;102798.75;;;15.56;37.18
75972;BME280;64651;47.540;19.088;2024-01-30T10:58:36;102780.84;;;20.13;29.65
75972;BME280;64651;47.540;19.088;2024-01-30T11:03:38;102772.91;;;18.85;30.56
75972;BME280;64651;47.540;19.088;2024-01-30T11:08:41;102792.72;;;13.26;39.82
75972;BME280;64651;47.540;19.088;2024-01-30T11:13:43;102764.84;;;19.09;31.17
75972;BME280;64651;47.540;19.088;2024-01-30T11:18:50;102765.53;;;15.78;35.09
75972;BME280;64651;47.540;19.088;2024-01-30T11:23:54;102750.44;;;20.60;27.94
75972;BME280;64651;47.540;19.088;2024-01-30T11:28:57;102753.13;;;21.43;26.57
75972;BME280;64651;47.540;19.088;2024-01-30T11:34:01;102765.37;;;15.51;33.74
75972;BME280;64651;47.540;19.088;2024-01-30T11:39:03;102738.78;;;21.21;26.70
75972;BME280;64651;47.540;19.088;2024-01-30T11:44:06;102741.87;;;18.46;30.05
75972;BME280;64651;47.540;19.088;2024-01-30T11:49:08;102731.37;;;22.87;24.87
75972;BME280;64651;47.540;19.088;2024-01-30T11:54:10;102738.03;;;19.48;28.23
75972;BME280;64651;47.540;19.088;2024-01-30T11:59:13;102724.91;;;20.23;27.37
75972;BME280;64651;47.540;19.088;2024-01-30T12:04:16;102717.03;;;21.08;26.36
75972;BME280;64651;47.540;19.088;2024-01-30T12:09:18;102706.59;;;21.90;26.24
75972;BME280;64651;47.540;19.088;2024-01-30T12:14:22;102700.63;;;15.84;34.03
75972;BME280;64651;47.540;19.088;2024-01-30T12:19:25;102697.06;;;15.89;33.50
75972;BME280;64651;47.540;19.088;2024-01-30T12:24:28;102699.62;;;15.52;33.63
75972;BME280;64651;47.540;19.088;2024-01-30T12:29:32;102688.88;;;15.55;33.45
75972;BME280;64651;47.540;19.088;2024-01-30T12:34:41;102682.75;;;18.34;29.59
75972;BME280;64651;47.540;19.088;2024-01-30T12:39:58;102687.44;;;19.60;27.71
75972;BME280;64651;47.540;19.088;2024-01-30T12:45:02;102682.22;;;18.42;29.15
75972;BME280;64651;47.540;19.088;2024-01-30T12:50:06;102676.72;;;17.74;28.76
75972;BME280;64651;47.540;19.088;2024-01-30T12:55:08;102676.63;;;19.18;27.71
75972;BME280;64651;47.540;19.088;2024-01-30T13:00:11;102665.62;;;17.95;28.91
75972;BME280;64651;47.540;19.088;2024-01-30T13:05:13;102665.22;;;18.53;27.97
75972;BME280;64651;47.540;19.088;2024-01-30T13:10:16;102655.91;;;16.61;29.87
75972;BME280;64651;47.540;19.088;2024-01-30T13:15:18;102649.97;;;15.72;31.46
75972;BME280;64651;47.540;19.088;2024-01-30T13:20:21;102650.66;;;12.39;37.21
75972;BME280;64651;47.540;19.088;2024-01-30T13:25:24;102654.16;;;12.34;37.39
75972;BME280;64651;47.540;19.088;2024-01-30T13:30:28;102649.09;;;12.31;37.62
75972;BME280;64651;47.540;19.088;2024-01-30T13:35:30;102643.31;;;12.21;37.40
75972;BME280;64651;47.540;19.088;2024-01-30T13:40:33;102648.06;;;12.14;39.17
75972;BME280;64651;47.540;19.088;2024-01-30T13:45:35;102653.00;;;12.77;37.20
75972;BME280;64651;47.540;19.088;2024-01-30T13:50:37;102640.34;;;13.62;35.12
75972;BME280;64651;47.540;19.088;2024-01-30T13:55:39;102643.19;;;16.38;29.83
75972;BME280;64651;47.540;19.088;2024-01-30T14:00:42;102635.31;;;18.13;27.25
75972;BME280;64651;47.540;19.088;2024-01-30T14:05:44;102630.31;;;19.12;26.19
75972;BME280;64651;47.540;19.088;2024-01-30T14:10:47;102632.56;;;19.15;25.85
75972;BME280;64651;47.540;19.088;2024-01-30T14:15:49;102622.72;;;17.80;26.75
75972;BME280;64651;47.540;19.088;2024-01-30T14:20:51;102626.91;;;17.93;26.33
75972;BME280;64651;47.540;19.088;2024-01-30T14:25:53;102626.72;;;18.40;25.70
75972;BME280;64651;47.540;19.088;2024-01-30T14:30:56;102622.09;;;17.16;27.07
75972;BME280;64651;47.540;19.088;2024-01-30T14:35:58;102622.81;;;16.59;27.87
75972;BME280;64651;47.540;19.088;2024-01-30T14:41:01;102625.88;;;14.00;31.28
75972;BME280;64651;47.540;19.088;2024-01-30T14:46:03;102617.22;;;15.74;29.80
75972;BME280;64651;47.540;19.088;2024-01-30T14:51:08;102613.88;;;15.72;29.57
75972;BME280;64651;47.540;19.088;2024-01-30T14:56:10;102614.59;;;13.22;32.98
75972;BME280;64651;47.540;19.088;2024-01-30T15:01:13;102619.94;;;11.46;36.39
75972;BME280;64651;47.540;19.088;2024-01-30T15:06:16;102628.72;;;11.36;37.16
75972;BME280;64651;47.540;19.088;2024-01-30T15:11:18;102628.12;;;9.85;39.90
75972;BME280;64651;47.540;19.088;2024-01-30T15:16:20;102636.53;;;8.42;43.79
75972;BME280;64651;47.540;19.088;2024-01-30T15:21:23;102631.62;;;7.37;46.49
75972;BME280;64651;47.540;19.088;2024-01-30T15:26:27;102635.94;;;6.35;49.04
75972;BME280;64651;47.540;19.088;2024-01-30T15:31:29;102618.91;;;5.54;51.58
75972;BME280;64651;47.540;19.088;2024-01-30T15:36:32;102622.91;;;5.08;53.63
75972;BME280;64651;47.540;19.088;2024-01-30T15:41:34;102627.63;;;4.84;54.86
75972;BME280;64651;47.540;19.088;2024-01-30T15:46:37;102635.59;;;4.57;56.20
75972;BME280;64651;47.540;19.088;2024-01-30T15:51:39;102628.56;;;4.39;57.56
75972;BME280;64651;47.540;19.088;2024-01-30T15:56:41;102639.75;;;4.30;58.20
75972;BME280;64651;47.540;19.088;2024-01-30T16:01:44;102646.25;;;4.06;59.83
75972;BME280;64651;47.540;19.088;2024-01-30T16:06:51;102642.66;;;3.83;60.09
75972;BME280;64651;47.540;19.088;2024-01-30T16:11:53;102651.53;;;3.77;61.08
75972;BME280;64651;47.540;19.088;2024-01-30T16:16:56;102656.72;;;3.63;61.93
75972;BME280;64651;47.540;19.088;2024-01-30T16:21:59;102644.50;;;3.29;62.65
75972;BME280;64651;47.540;19.088;2024-01-30T16:27:01;102649.72;;;3.30;63.83
75972;BME280;64651;47.540;19.088;2024-01-30T16:32:03;102648.00;;;3.37;64.32
75972;BME280;64651;47.540;19.088;2024-01-30T16:37:06;102647.28;;;3.43;65.03
75972;BME280;64651;47.540;19.088;2024-01-30T16:42:08;102644.38;;;3.53;65.18
75972;BME280;64651;47.540;19.088;2024-01-30T16:47:11;102643.81;;;3.26;65.15
75972;BME280;64651;47.540;19.088;2024-01-30T16:52:14;102645.16;;;2.75;66.31
75972;BME280;64651;47.540;19.088;2024-01-30T16:57:16;102645.19;;;2.51;67.63
75972;BME280;64651;47.540;19.088;2024-01-30T17:02:19;102651.50;;;2.35;68.80
75972;BME280;64651;47.540;19.088;2024-01-30T17:07:21;102655.84;;;2.69;69.02
75972;BME280;64651;47.540;19.088;2024-01-30T17:12:25;102646.47;;;2.87;68.60
75972;BME280;64651;47.540;19.088;2024-01-30T17:17:27;102649.03;;;2.89;68.82
75972;BME280;64651;47.540;19.088;2024-01-30T17:22:30;102649.59;;;2.60;69.43
75972;BME280;64651;47.540;19.088;2024-01-30T17:27:33;102646.56;;;2.39;71.12
75972;BME280;64651;47.540;19.088;2024-01-30T17:32:35;102638.06;;;2.58;70.99
75972;BME280;64651;47.540;19.088;2024-01-30T17:37:37;102643.25;;;4.16;73.72
75972;BME280;64651;47.540;19.088;2024-01-30T17:42:40;102633.09;;;3.25;71.83
75972;BME280;64651;47.540;19.088;2024-01-30T17:47:43;102633.50;;;3.06;73.12
75972;BME280;64651;47.540;19.088;2024-01-30T17:52:45;102636.28;;;2.90;73.02
75972;BME280;64651;47.540;19.088;2024-01-30T17:57:47;102640.25;;;2.71;74.66
75972;BME280;64651;47.540;19.088;2024-01-30T18:02:49;102642.97;;;2.71;75.74
75972;BME280;64651;47.540;19.088;2024-01-30T18:07:55;102635.94;;;2.93;76.14
75972;BME280;64651;47.540;19.088;2024-01-30T18:12:57;102636.13;;;2.83;76.12
75972;BME280;64651;47.540;19.088;2024-01-30T18:18:02;102646.72;;;2.62;76.07
75972;BME280;64651;47.540;19.088;2024-01-30T18:23:05;102638.41;;;2.55;76.48
75972;BME280;64651;47.540;19.088;2024-01-30T18:28:07;102634.69;;;2.40;76.94
75972;BME280;64651;47.540;19.088;2024-01-30T18:33:09;102621.09;;;2.32;77.62
75972;BME280;64651;47.540;19.088;2024-01-30T18:38:11;102631.28;;;2.46;78.20
75972;BME280;64651;47.540;19.088;2024-01-30T18:43:15;102629.59;;;2.29;77.47
75972;BME280;64651;47.540;19.088;2024-01-30T18:48:20;102631.94;;;2.32;78.04
75972;BME280;64651;47.540;19.088;2024-01-30T18:53:22;102628.22;;;2.33;78.13
75972;BME280;64651;47.540;19.088;2024-01-30T18:58:25;102628.41;;;2.15;78.04
75972;BME280;64651;47.540;19.088;2024-01-30T19:03:27;102629.25;;;2.48;77.42
75972;BME280;64651;47.540;19.088;2024-01-30T19:08:31;102615.34;;;2.19;77.71
75972;BME280;64651;47.540;19.088;2024-01-30T19:13:34;102640.78;;;2.34;78.31
75972;BME280;64651;47.540;19.088;2024-01-30T19:18:36;102635.19;;;2.03;77.76
75972;BME280;64651;47.540;19.088;2024-01-30T19:23:38;102628.75;;;2.12;79.46
75972;BME280;64651;47.540;19.088;2024-01-30T19:28:42;102640.41;;;1.72;79.30
75972;BME280;64651;47.540;19.088;2024-01-30T19:33:44;102630.22;;;1.58;79.86
75972;BME280;64651;47.540;19.088;2024-01-30T19:38:47;102630.72;;;1.61;81.21
75972;BME280;64651;47.540;19.088;2024-01-30T19:43:49;102637.97;;;1.53;81.15
75972;BME280;64651;47.540;19.088;2024-01-30T19:48:51;102630.41;;;1.65;81.18
75972;BME280;64651;47.540;19.088;2024-01-30T19:53:53;102615.84;;;1.23;81.27
75972;BME280;64651;47.540;19.088;2024-01-30T19:58:56;102618.97;;;1.45;82.05
75972;BME280;64651;47.540;19.088;2024-01-30T20:03:58;102631.06;;;1.67;82.30
75972;BME280;64651;47.540;19.088;2024-01-30T20:09:00;102635.56;;;1.34;82.21
75972;BME280;64651;47.540;19.088;2024-01-30T20:14:03;102630.44;;;1.31;81.76
75972;BME280;64651;47.540;19.088;2024-01-30T20:19:05;102625.50;;;1.84;80.87
75972;BME280;64651;47.540;19.088;2024-01-30T20:24:10;102631.81;;;2.17;78.81
75972;BME280;64651;47.540;19.088;2024-01-30T20:29:12;102630.25;;;1.82;78.70
75972;BME280;64651;47.540;19.088;2024-01-30T20:34:14;102639.75;;;2.02;80.20
75972;BME280;64651;47.540;19.088;2024-01-30T20:39:17;102625.19;;;1.29;79.63
75972;BME280;64651;47.540;19.088;2024-01-30T20:44:19;102639.09;;;0.92;80.84
75972;BME280;64651;47.540;19.088;2024-01-30T20:49:22;102637.72;;;0.62;81.86
75972;BME280;64651;47.540;19.088;2024-01-30T20:54:24;102624.13;;;0.28;82.75
75972;BME280;64651;47.540;19.088;2024-01-30T20:59:27;102595.94;;;-0.05;83.52
75972;BME280;64651;47.540;19.088;2024-01-30T21:04:29;102630.34;;;0.03;84.65
75972;BME280;64651;47.540;19.088;2024-01-30T21:09:32;102628.41;;;-0.05;85.05
75972;BME280;64651;47.540;19.088;2024-01-30T21:14:34;102627.03;;;-0.09;85.25
75972;BME280;64651;47.540;19.088;2024-01-30T21:19:36;102629.41;;;-0.23;85.86
75972;BME280;64651;47.540;19.088;2024-01-30T21:24:39;102622.91;;;-0.30;86.05
75972;BME280;64651;47.540;19.088;2024-01-30T21:29:42;102623.31;;;-0.43;86.54
75972;BME280;64651;47.540;19.088;2024-01-30T21:34:45;102620.91;;;-0.46;86.77
75972;BME280;64651;47.540;19.088;2024-01-30T21:39:47;102618.81;;;-0.34;86.74
75972;BME280;64651;47.540;19.088;2024-01-30T21:44:49;102610.63;;;-0.43;87.31
75972;BME280;64651;47.540;19.088;2024-01-30T21:49:53;102613.78;;;-0.47;87.64
75972;BME280;64651;47.540;19.088;2024-01-30T21:54:55;102622.25;;;-0.32;87.49
75972;BME280;64651;47.540;19.088;2024-01-30T21:59:57;102600.88;;;-0.53;87.73
75972;BME280;64651;47.540;19.088;2024-01-30T22:05:00;102610.06;;;-0.64;87.81
75972;BME280;64651;47.540;19.088;2024-01-30T22:10:02;102604.19;;;-0.77;88.04
75972;BME280;64651;47.540;19.088;2024-01-30T22:15:05;102601.94;;;-0.82;88.30
75972;BME280;64651;47.540;19.088;2024-01-30T22:20:09;102593.69;;;-0.80;88.55
75972;BME280;64651;47.540;19.088;2024-01-30T22:25:12;102581.78;;;-0.87;88.54
75972;BME280;64651;47.540;19.088;2024-01-30T22:30:14;102587.03;;;-0.86;88.63
75972;BME280;64651;47.540;19.088;2024-01-30T22:35:17;102585.75;;;-0.91;88.87
75972;BME280;64651;47.540;19.088;2024-01-30T22:40:19;102584.09;;;-0.92;88.96
75972;BME280;64651;47.540;19.088;2024-01-30T22:45:21;102591.75;;;-0.97;89.21
75972;BME280;64651;47.540;19.088;2024-01-30T22:50:23;102586.97;;;-1.03;89.07
75972;BME280;64651;47.540;19.088;2024-01-30T22:55:26;102595.25;;;-1.05;89.06
75972;BME280;64651;47.540;19.088;2024-01-30T23:00:29;102594.91;;;-1.02;88.90
75972;BME280;64651;47.540;19.088;2024-01-30T23:05:33;102589.37;;;-1.00;88.76
75972;BME280;64651;47.540;19.088;2024-01-30T23:10:35;102568.84;;;-1.20;89.11
75972;BME280;64651;47.540;19.088;2024-01-30T23:15:38;102579.97;;;-1.24;89.27
75972;BME280;64651;47.540;19.088;2024-01-30T23:20:40;102574.66;;;-1.43;89.33
75972;BME280;64651;47.540;19.088;2024-01-30T23:25:42;102568.28;;;-1.51;89.47
75972;BME280;64651;47.540;19.088;2024-01-30T23:30:44;102578.84;;;-1.31;89.11
75972;BME280;64651;47.540;19.088;2024-01-30T23:35:47;102578.66;;;-1.47;89.15
75972;BME280;64651;47.540;19.088;2024-01-30T23:40:51;102585.00;;;-1.38;89.97
75972;BME280;64651;47.540;19.088;2024-01-30T23:45:54;102564.78;;;-1.34;90.21
75972;BME280;64651;47.540;19.088;2024-01-30T23:50:56;102555.63;;;-1.41;90.34
75972;BME280;64651;47.540;19.088;2024-01-30T23:55:58;102549.94;;;-1.48;90.58
